Tiempo atmosférico en la estación meteorológica de Écija, Sevilla (130 m.)



Fecha
DESCASC
Temp. máxima en grados centígrados (hora)
DESCASC
Temp. mínima en grados centígrados (hora)
DESCASC
Temp. media en grados centígrados
DESCASC
Racha de viento máxima en m/sg (hora)
DESCASC
Velocidad máxima media en intervalos de 10 minutos(hora)
DESCASC
Precipitaciones diarias en mm
DESCASC
Precipitaciones de 00:00 a 06:00 en mm
DESCASC
Precipitaciones de 06:00 a 12:00 en mm
DESCASC
Precipitaciones de 12:00 a 18:00 en mm
DESCASC
Precipitaciones de 18:00 a 24:00 en mm
DESCASC
22-11-2020 21.7 (15:20) 7.9 (07:50) 14.8 5.56 (12:10) 3.61 (12:10) 0 0 0 0 0
21-11-2020 22.6 (13:40) 8.8 (05:10) 15.7 8.89 (16:30) 6.11 (15:50) 0 0 0 0 0
20-11-2020 25.3 (16:10) 9.3 (07:40) 17.3 7.22 (13:50) 5 (15:30) 0 0 0 0 0
19-11-2020 25.8 (16:20) 10.9 (00:00) 18.3 6.11 (18:20) 4.44 (18:20) 0 0 0 0 0
18-11-2020 25.8 (16:00) 11.3 (00:00) 18.5 4.17 (13:00) 3.06 (19:00) 0 0 0 0 0
17-11-2020 24.9 (16:10) 11.6 (00:00) 18.3 3.89 (13:30) 2.22 (18:00) 0.1 0 0.1 0 0
16-11-2020 23.1 (15:10) 12.6 (00:00) 17.9 3.61 (06:20) 3.33 (06:30) 0 0 0 0 0
15-11-2020 26.2 (16:10) 13.4 (00:00) 19.8 5.28 (12:50) 2.78 (11:40) 0.1 0 0.1 0 0
14-11-2020 21.1 (17:00) 15.8 (00:00) 18.5 7.22 (17:10) 3.89 (15:50) 0.7 0 0.4 0.3 0
13-11-2020 23.6 (14:50) 10.8 (00:00) 17.2 3.06 (18:00) 1.67 (11:30) 0 0 0 0 0
12-11-2020 22.5 (15:10) 11.6 (00:00) 17.1 7.22 (13:40) 5 (13:40) 0 0 0 0 0
11-11-2020 23 (15:00) 10.3 (00:00) 16.7 6.67 (13:00) 4.17 (13:00) 0 0 0 0 0
10-11-2020 22.5 (16:40) 10 (00:00) 16.3 6.94 (13:00) 3.89 (13:00) 0.2 0.1 0.1 0 0
09-11-2020 21.2 (15:50) 12.3 (00:00) 16.8 3.06 (14:40) 1.39 (12:00) 0.3 0 0.3 0 0
08-11-2020 23.6 (16:20) 10.8 (00:00) 17.2 4.17 (15:20) 2.22 (14:40) 0.1 0 0.1 0 0
07-11-2020 21.9 (16:30) 13.6 (00:00) 17.8 13.33 (02:40) 6.67 (02:50) 8.1 7.2 0.9 0 0
06-11-2020 26.2 (15:00) 14.3 (00:00) 20.3 11.39 (21:50) 6.11 (21:50) 2.1 0.1 0 0 2
05-11-2020 17.5 (17:10) 14.9 (00:00) 16.2 6.39 (16:20) 4.44 (16:10) 55.1 12 14.8 28.3 0
04-11-2020 21.2 (15:40) 15 (00:00) 18.1 7.5 (17:40) 4.72 (17:30) 6.7 5.5 1.2 0 0
03-11-2020 25.6 (15:40) 10.7 (00:00) 18.2 6.67 (19:10) 4.44 (19:10) 0 0 0 0 0
02-11-2020 29.8 (15:40) 10.5 (00:00) 20.1 5.28 (13:20) 2.5 (18:30) 0 0 0 0 0
01-11-2020 28.6 (16:10) 10.6 (00:00) 19.6 5.28 (13:00) 2.78 (13:00) 0 0 0 0 0
31-10-2020 28.4 (15:50) 11.1 (00:00) 19.8 5.56 (19:40) 3.89 (19:50) 0 0 0 0 0
30-10-2020 28.1 (14:50) 10.6 (00:00) 19.4 6.39 (11:40) 3.61 (11:30) 0 0 0 0 0
29-10-2020 28.1 (16:20) 9.8 (00:00) 19 5.83 (19:40) 4.72 (19:40) 0 0 0 0 0
28-10-2020 23.5 (16:40) 7.2 (00:00) 15.3 6.11 (13:40) 3.33 (12:30) 0 0 0 0 0
27-10-2020 20.7 (16:20) 6 (00:00) 13.4 4.44 (15:40) 2.22 (16:40) 0 0 0 0 0

Gráficas

Temp. máximas Temp. mínimas Temp. medias Precipitaciones Rachas de viento máximas Velocidades máximas media en intervalos de 10 minutos

Datos horarios

Fecha y hora oficial Temperatura (ºC) Velocidad del viento (km/h) Dirección del viento Racha (km/h) Dirección de racha Precipitación (mm) Presión (hPa) Tendencia (hPa) Humedad (%)
2020-11-25 23:00:00 12.7 4 Este 17 Sudeste 0.5 995.6 -1.1 89
2020-11-25 22:00:00 12.9 9 Este 12 Este 2.8 996.2 -0.5 89
2020-11-25 21:00:00 13.1 6 Sudeste 24 Sudeste 1.6 996.8 -0.8 88
2020-11-25 20:00:00 13.2 18 Sudeste 26 Sudeste 0 996.7 -1 89
2020-11-25 19:00:00 13.1 10 Sudeste 17 Sudeste 1.5 996.7 -0.6 90
2020-11-25 18:00:00 13.7 7 Sudeste 13 Sudeste 2.6 997.6 -0.3 89
2020-11-25 17:00:00 14 8 Sudoeste 15 Sudoeste 0.7 997.7 -1.2 88
2020-11-25 16:00:00 14.1 10 Sudoeste 30 Sudoeste 1.1 997.3 -1.5 86
2020-11-25 15:00:00 14 23 Oeste 37 Oeste 3.9 997.9 -2.3 84
2020-11-25 14:00:00 14.2 21 Oeste 55 Noroeste 0.7 998.9 -- 77
2020-11-25 13:00:00 20.9 16 Sur 23 Sur 0 998.8 -- 51
2020-11-25 12:00:00 16.7 4 Este 8 Sudeste 0 1000.2 -- 68
2020-11-25 11:00:00 13.5 3 Sudeste 6 Sudeste 0 1001.4 -- 84
2020-11-25 10:00:00 11.5 5 Sudeste 9 Sudeste 0 1001.6 -- 89
2020-11-25 09:00:00 10.4 6 Sudeste 8 Sudeste 0 1001.7 -- 89
2020-11-25 08:00:00 10.7 0 Calma 10 Sudeste 0 1002.2 -- 88
2020-11-25 07:00:00 12 5 Sur 13 Oeste 0 1002.4 -- 88
2020-11-25 06:00:00 12.9 10 Sudoeste 13 Sudoeste 0 1002.4 -- 88
2020-11-25 05:00:00 12.7 10 Sudoeste 14 Sudoeste 0 1002.9 -- 85
2020-11-25 04:00:00 13.3 10 Sudoeste 13 Sudoeste 0 1003.2 -- 83
2020-11-25 03:00:00 13.2 8 Sur 12 Sudoeste 0 1003.5 -- 79
2020-11-25 02:00:00 13.4 6 Sudoeste 10 Sudoeste 0 1004 -- 77
2020-11-25 01:00:00 12.5 5 Sudoeste 7 Sudoeste 0 1004.5 -- 68
2020-11-25 00:00:00 13.7 3 Sur 6 Sudeste 0 1004.7 -- 63
2020-11-24 23:00:00 14.2 3 Sur 5 Sudoeste 0 1005.1 -- 62
2020-11-24 22:00:00 14.1 0 Calma 3 Sudoeste 0 1005.2 -- 62
2020-11-24 21:00:00 13.9 3 Sur 6 Sudeste 0 1005.3 -- 61
2020-11-24 20:00:00 13.7 4 Sur 7 Sur 0 1005.5 -- 57
2020-11-24 19:00:00 14.9 3 Noroeste 7 Noroeste 0 1005.5 -- 52
2020-11-24 18:00:00 17.4 0 Calma 8 Este 0 1005.5 -- 47
2020-11-24 17:00:00 19.3 5 Nordeste 13 Este 0 1005.7 -- 44
2020-11-24 16:00:00 19.7 6 Nordeste 14 Nordeste 0 1006 -- 42
2020-11-24 15:00:00 19.5 5 Nordeste 12 Nordeste 0 1006.6 -- 42
2020-11-24 14:00:00 19.9 3 Oeste 8 Sur 0 1007.6 -- 42
2020-11-24 13:00:00 17.7 0 Calma 9 Este 0 1008.6 -- 53
2020-11-24 12:00:00 15.5 3 Este 9 Este 0 1009.8 -- 58
2020-11-24 11:00:00 12.5 0 Calma 5 Norte 0 1010.3 -- 67
2020-11-24 10:00:00 9 3 Sudeste 5 Sudeste 0 1010.3 -- 77
2020-11-24 09:00:00 6.8 0 Calma 4 Sudeste 0 1010.1 -- 84
2020-11-24 08:00:00 6.1 0 Calma 3 Sur 0 1009.8 -- 85
2020-11-24 07:00:00 6.1 0 Calma 6 Sur 0 1009.4 -- 84
2020-11-24 06:00:00 6.4 3 Sur 6 Sudeste 0 1009.1 -- 84
2020-11-24 05:00:00 6.3 4 Sur 7 Sur 0 1009.3 -- 83
2020-11-24 04:00:00 7.3 4 Sudeste 6 Sudeste 0 1009.7 -- 82
2020-11-24 03:00:00 7.7 2 Sudoeste 7 Sur 0 1009.9 -- 80
2020-11-24 02:00:00 8 4 Sur 6 Sur 0 1010.1 -- 80
2020-11-24 01:00:00 8.8 3 Sudeste 7 Sudeste 0 1010.5 -- 79
2020-11-24 00:00:00 9.2 0 Calma 6 Norte 0 1010.7 -- 77
2020-11-23 23:00:00 9.6 0 Calma 6 Noroeste 0 1011.1 -- 71
2020-11-23 22:00:00 10.2 6 Sudeste 8 Sudeste 0 1011.1 -- 62
2020-11-23 21:00:00 12.2 3 Sur 12 Sur 0 1011 -- 59
2020-11-23 20:00:00 14.4 7 Sur 23 Sur 0 1010.8 -- 52
2020-11-23 19:00:00 14.8 12 Sudoeste 21 Sur 0 1010.2 -- 45
2020-11-23 18:00:00 17.2 12 Sur 19 Sur 0 1009.9 -- 38
2020-11-23 17:00:00 20.2 12 Sur 24 Sur 0 1009.6 -- 36
2020-11-23 16:00:00 21.1 13 Sur 23 Sudeste 0 1009.7 -- 35
2020-11-23 15:00:00 20.9 16 Sur 26 Sur 0 1010.2 -- 36
2020-11-23 14:00:00 20 11 Sudeste 18 Sudeste 0 1010.7 -- 42
2020-11-23 13:00:00 18.2 7 Este 18 Sudeste 0 1011.7 -- 44
2020-11-23 12:00:00 16.2 9 Este 15 Este 0 1012.6 -- 51
2020-11-23 11:00:00 13.1 9 Este 13 Este 0 1013.1 -- 62
2020-11-23 10:00:00 10.1 3 Este 9 Sudeste 0 1013 -- 77
2020-11-23 09:00:00 7.2 4 Sur 7 Sudeste 0 1012.5 -- 85
2020-11-23 08:00:00 6.1 0 Calma 4 Nordeste 0 1012.4 -- 88
2020-11-23 07:00:00 6 0 Calma 5 Sur 0 1011.9 -- 88
2020-11-23 06:00:00 6.6 0 Calma 3 Sudeste 0 1011.7 -- 87
2020-11-23 05:00:00 6.6 0 Calma 4 Noroeste 0 1011.6 -- 85
2020-11-23 04:00:00 6.5 0 Calma 4 Oeste 0 1011.8 -- 83
2020-11-23 03:00:00 7.9 0 Calma 5 Sur 0 1011.9 -- 83
2020-11-23 02:00:00 7.8 2 Sur 5 Sudoeste 0 1011.8 -- 79
2020-11-23 01:00:00 9 3 Noroeste 5 Noroeste 0 1012 -- 77
2020-11-23 00:00:00 9.2 4 Norte 5 Norte 0 1012 -- 73
2020-11-22 23:00:00 10.5 0 Calma 7 Sudeste 0 1011.9 -- 71
2020-11-22 22:00:00 11.5 4 Sur 10 Sur 0 1011.6 -- 65
2020-11-22 21:00:00 13.1 8 Sur 16 Sur 0 1011.4 -- 59
2020-11-22 20:00:00 14 8 Sur 15 Sudoeste 0 1011.1 -- 54
2020-11-22 19:00:00 15.5 11 Sudoeste 15 Sur 0 1010.7 -- 48
2020-11-22 18:00:00 18.2 8 Este 13 Este 0 1010.3 -- 37
2020-11-22 17:00:00 20.7 6 Este 17 Este 0 1010.1 -- 33
2020-11-22 16:00:00 21.3 10 Este 18 Este 0 1010.1 -- 32
2020-11-22 15:00:00 21.5 5 Este 17 Este 0 1010.6 -- 33
2020-11-22 14:00:00 20.4 9 Este 18 Sudeste 0 1011.3 -- 37
2020-11-22 13:00:00 19.8 7 Sudeste 20 Este 0 1012.2 -- 42
2020-11-22 12:00:00 18.1 11 Este 19 Este 0 1012.9 -- 48
2020-11-22 11:00:00 15.7 6 Este 11 Este 0 1013.2 -- 60
2020-11-22 10:00:00 12.4 0 Calma 5 Sudeste 0 1013.4 -- 77
2020-11-22 09:00:00 9.5 4 Sudeste 8 Sudeste 0 1012.9 -- 88
2020-11-22 08:00:00 8.1 0 Calma 12 Sudeste 0 1012.5 -- 87
2020-11-22 07:00:00 8.4 8 Sudeste 11 Este 0 1012.1 -- 85
2020-11-22 06:00:00 8.9 7 Sudeste 10 Sudeste 0 1011.7 -- 84
2020-11-22 05:00:00 9.8 6 Sudeste 10 Sudeste 0 1011.6 -- 83
2020-11-22 04:00:00 9.9 6 Sudeste 11 Sudeste 0 1011.7 -- 83
2020-11-22 03:00:00 10.3 6 Sudeste 10 Sudeste 0 1011.6 -- 80
2020-11-22 02:00:00 11.3 6 Sudeste 10 Sudeste 0 1011.5 -- 79
2020-11-22 01:00:00 12.2 4 Sudeste 7 Sudeste 0 1011.5 -- 78
2020-11-22 00:00:00 12.8 4 Este 7 Este 0 1011.4 -- 75
2020-11-21 23:00:00 13.1 5 Sudeste 8 Sudeste 0 1011.5 -- 73
2020-11-21 22:00:00 13.6 0 Calma 3 Sudeste 0 1011.3 -- 69
2020-11-21 21:00:00 13.6 0 Calma 8 Sudeste 0 1011.2 -- 64
2020-11-21 20:00:00 15.5 7 Sur 16 Sur 0 1010.8 -- 59
2020-11-21 19:00:00 16.7 9 Sudoeste 13 Sur 0 1010.4 -- 54
2020-11-21 18:00:00 18.7 12 Sur 26 Sur 0 1009.9 -- 48
2020-11-21 17:00:00 20.5 19 Sur 32 Sur 0 1009.4 -- 45
2020-11-21 16:00:00 21.4 22 Sur 32 Sur 0 1009 -- 42
2020-11-21 15:00:00 22.4 17 Sur 30 Sur 0 1009.2 -- 43
2020-11-21 14:00:00 22.4 15 Sur 25 Sur 0 1009.6 -- 45
2020-11-21 13:00:00 22 14 Sur 23 Sur 0 1010.1 -- 48
2020-11-21 12:00:00 19.7 9 Este 14 Este 0 1010.9 -- 54
2020-11-21 11:00:00 16.8 8 Este 12 Este 0 1011.2 -- 56
2020-11-21 10:00:00 14.1 6 Este 10 Este 0 1011 -- 57
2020-11-21 09:00:00 11 5 Este 14 Sudeste 0 1011 -- 68
2020-11-21 08:00:00 10.6 4 Sudeste 6 Este 0 1010.3 -- 82
2020-11-21 07:00:00 10.5 4 Nordeste 8 Nordeste 0 1009.7 -- 83
2020-11-21 06:00:00 10.2 4 Norte 11 Norte 0 1009.3 -- 83
2020-11-21 05:00:00 8.9 0 Calma 6 Nordeste 0 1009.1 -- 82
2020-11-21 04:00:00 10.9 0 Calma 6 Sur 0 1009.4 -- 82
2020-11-21 03:00:00 9.9 6 Sudoeste 11 Sudoeste 0 1009.3 -- 73
2020-11-21 02:00:00 10.8 0 Calma 4 Sudoeste 0 1009.4 -- 64
2020-11-21 01:00:00 10.3 0 Calma 4 Sur 0 1009.8 -- 59
2020-11-21 00:00:00 11.4 4 Sur 7 Sudoeste 0 1009.9 -- 55
2020-11-20 23:00:00 12.3 5 Sur 9 Sudeste 0 1010 -- 52
2020-11-20 22:00:00 13.2 0 Calma 5 Sudeste 0 1009.4 -- 47
2020-11-20 21:00:00 15.1 3 Sur 10 Sudoeste 0 1008.9 -- 41
2020-11-20 20:00:00 16.4 4 Norte 6 Nordeste 0 1008.9 -- 36
2020-11-20 19:00:00 18.5 0 Calma 7 Este 0 1008.7 -- 31
2020-11-20 18:00:00 22.5 4 Nordeste 19 Este 0 1008.9 -- 24
2020-11-20 17:00:00 24.4 14 Este 24 Este 0 1008.7 -- 21
2020-11-20 16:00:00 25.1 15 Este 26 Este 0 1008.7 -- 22
2020-11-20 15:00:00 24.4 17 Este 26 Este 0 1009.4 -- 30
2020-11-20 14:00:00 23.3 15 Este 26 Nordeste 0 1010 -- 34
2020-11-20 13:00:00 22.1 14 Este 21 Este 0 1011.3 -- 42
2020-11-20 12:00:00 20.6 16 Este 25 Este 0 1012.4 -- 47
2020-11-20 11:00:00 17.4 0 Calma 5 Este 0 1012.6 -- 68
2020-11-20 10:00:00 14.1 0 Calma 4 Noroeste 0 1012.6 -- 86
2020-11-20 09:00:00 11.1 3 Noroeste 8 Norte 0 1012.6 -- 90
2020-11-20 08:00:00 10.3 6 Sur 8 Sur 0 1012.1 -- 89
2020-11-20 07:00:00 10.6 0 Calma 4 Sur 0 1012.4 -- 89
2020-11-20 06:00:00 11 0 Calma 4 Sur 0 1012.3 -- 89
2020-11-20 05:00:00 11.4 0 Calma 4 Sur 0 1012.2 -- 88
2020-11-20 04:00:00 11.4 2 Sudoeste 7 Sudoeste 0 1012.5 -- 87
2020-11-20 03:00:00 12.1 0 Calma 4 Sur 0 1012.6 -- 85
2020-11-20 02:00:00 12.7 2 Sur 5 Sudeste 0 1013 -- 85
2020-11-20 01:00:00 13.2 3 Sudeste 8 Sur 0 1013.3 -- 84
2020-11-20 00:00:00 13.7 3 Sur 10 Sudeste 0 1013.5 -- 82
2020-11-19 23:00:00 14.2 5 Sudeste 7 Sudeste 0 1013.9 -- 78
2020-11-19 22:00:00 15.3 5 Sudeste 8 Sudeste 0 1013.7 -- 76
2020-11-19 21:00:00 16.2 4 Sudeste 7 Sudeste 0 1013.3 -- 69
2020-11-19 20:00:00 17.5 2 Sur 15 Sudoeste 0 1013 -- 62
2020-11-19 19:00:00 19.1 12 Sudoeste 22 Sur 0 1012.1 -- 58
2020-11-19 18:00:00 21.6 13 Sur 18 Sur 0 1011.7 -- 48
2020-11-19 17:00:00 25.4 7 Sur 12 Sudeste 0 1011.5 -- 37
2020-11-19 16:00:00 25.5 9 Sudeste 18 Sudeste 0 1011.3 -- 35
2020-11-19 15:00:00 25.4 12 Este 19 Sudeste 0 1011.8 -- 36
2020-11-19 14:00:00 24.6 10 Este 19 Este 0 1012 -- 40
2020-11-19 13:00:00 22.9 8 Este 14 Nordeste 0 1012.9 -- 47
2020-11-19 12:00:00 20.8 0 Calma 11 Sudeste 0 1013.5 -- 59
2020-11-19 11:00:00 17.9 10 Este 16 Este 0 1013.8 -- 68
2020-11-19 10:00:00 14.6 4 Sudeste 7 Sudeste 0 1013.5 -- 80
2020-11-19 09:00:00 12.4 0 Calma 3 Noroeste 0 1013 -- 89
2020-11-19 08:00:00 11.1 0 Calma 3 Sur 0 1012 -- 88
2020-11-19 07:00:00 11.6 0 Calma 7 Sudeste 0 1011.7 -- 88
2020-11-19 06:00:00 11.7 0 Calma 5 Sur 0 1011.1 -- 88
2020-11-19 05:00:00 11.7 0 Calma 3 Sur 0 1011 -- 87
2020-11-19 04:00:00 12.4 2 Sur 4 Sur 0 1010.9 -- 86
2020-11-19 03:00:00 12.8 0 Calma 3 Sur 0 1010.9 -- 85
2020-11-19 02:00:00 13.4 0 Calma 8 Sudeste 0 1010.9 -- 84
2020-11-19 01:00:00 14 2 Sur 4 Sudeste 0 1010.9 -- 83
2020-11-19 00:00:00 14.7 0 Calma 5 Sudeste 0 1011.1 -- 80
2020-11-18 23:00:00 15.1 3 Sur 6 Sur 0 1011.3 -- 78
2020-11-18 22:00:00 15.8 3 Sur 4 Sur 0 1011 -- 73
2020-11-18 21:00:00 17.2 0 Calma 7 Noroeste 0 1010.7 -- 67
2020-11-18 20:00:00 18.5 0 Calma 14 Sudoeste 0 1010.2 -- 61
2020-11-18 19:00:00 20.2 11 Sudoeste 14 Sudoeste 0 1009.7 -- 54
2020-11-18 18:00:00 23.6 0 Calma 6 Nordeste 0 1009.2 -- 37
2020-11-18 17:00:00 25.6 3 Este 10 Sudeste 0 1009.4 -- 36
2020-11-18 16:00:00 25.7 6 Este 12 Este 0 1009.4 -- 35
2020-11-18 15:00:00 25.3 8 Este 14 Este 0 1009.9 -- 38
2020-11-18 14:00:00 24.2 9 Este 15 Sudeste 0 1010.2 -- 43
2020-11-18 13:00:00 22.7 7 Este 15 Este 0 1011.1 -- 51
2020-11-18 12:00:00 20.6 7 Este 13 Este 0 1012 -- 59
2020-11-18 11:00:00 17.8 5 Este 10 Este 0 1012.3 -- 70
2020-11-18 10:00:00 14.5 0 Calma 4 Este 0 1012.4 -- 88
2020-11-18 09:00:00 12.4 0 Calma 6 Sur 0 1012.1 -- 89
2020-11-18 08:00:00 11.5 4 Sudeste 5 Sudeste 0 1011.6 -- 89
2020-11-18 07:00:00 11.9 0 Calma 5 Noroeste 0 1011.4 -- 89
2020-11-18 06:00:00 11.3 0 Calma -- -- 0 1011.3 -- 89
2020-11-18 05:00:00 12.4 0 Calma 4 Sur 0 1011.1 -- 89
2020-11-18 04:00:00 12.3 0 Calma 4 Sur 0 1011.1 -- 88
2020-11-18 03:00:00 13.4 0 Calma 4 Sur 0 1011.4 -- 88
2020-11-18 02:00:00 13.9 2 Sur 6 Sudeste 0 1011.6 -- 88
2020-11-18 01:00:00 14.2 2 Sudeste 6 Sur 0 1011.8 -- 86
2020-11-18 00:00:00 14.8 4 Sur 6 Sur 0 1011.9 -- 85
2020-11-17 23:00:00 15.3 2 Sur 5 Sudeste 0 1012 -- 83
2020-11-17 22:00:00 16.5 0 Calma 5 Sur 0 1011.7 -- 80
2020-11-17 21:00:00 17.2 0 Calma 3 Noroeste 0 1011.6 -- 74
2020-11-17 20:00:00 18.8 0 Calma 8 Noroeste 0 1011.3 -- 71
2020-11-17 19:00:00 19.8 7 Noroeste 10 Noroeste 0 1010.8 -- 64
2020-11-17 18:00:00 21.9 8 Noroeste 10 Noroeste 0 1010.5 -- 57
2020-11-17 17:00:00 24.2 6 Norte 10 Norte 0 1010.2 -- 51
2020-11-17 16:00:00 24.8 5 Norte 13 Norte 0 1010.2 -- 51
2020-11-17 15:00:00 24.3 5 Norte 14 Noroeste 0 1010.4 -- 54
2020-11-17 14:00:00 23.6 6 Norte 14 Norte 0 1010.8 -- 55
2020-11-17 13:00:00 22.5 4 Este 12 Este 0 1011.5 -- 59
2020-11-17 12:00:00 20 4 Nordeste 11 Noroeste 0 1012.1 -- 72
2020-11-17 11:00:00 17.8 3 Nordeste 9 Nordeste 0 1012.2 -- 80
2020-11-17 10:00:00 14.9 6 Nordeste 10 Nordeste 0 1012.1 -- 90
2020-11-17 09:00:00 13.2 0 Calma 4 Nordeste 0 1011.6 -- 90
2020-11-17 08:00:00 11.9 0 Calma 6 Norte 0 1011.2 -- 90
2020-11-17 07:00:00 11.9 0 Calma 4 Sur 0.1 1010.7 -- 90
2020-11-17 06:00:00 12.1 0 Calma 3 Sur 0 1010.7 -- 90
2020-11-17 05:00:00 12.6 0 Calma 6 Sur 0 1010.5 -- 90
2020-11-17 04:00:00 12.7 0 Calma 5 Sudeste 0 1010.4 -- 89
2020-11-17 03:00:00 13.4 3 Sur 4 Sudeste 0 1010.3 -- 89
2020-11-17 02:00:00 14.2 0 Calma 8 Sudoeste 0 1010.2 -- 89
2020-11-17 01:00:00 14.8 0 Calma 10 Sudoeste 0 1010.5 -- 88
2020-11-17 00:00:00 15 0 Calma 6 Sudeste 0 1010.5 -- 87
2020-11-16 23:00:00 15.3 5 Sudeste 7 Sudeste 0 1010.9 -- 84
2020-11-16 22:00:00 16.8 0 Calma 8 Sudoeste 0 1010.2 -- 84
2020-11-16 21:00:00 17.6 3 Sur 4 Sur 0 1010.1 -- 80
2020-11-16 20:00:00 18.3 0 Calma 5 Sudoeste 0 1009.5 -- 75
2020-11-16 19:00:00 19.9 3 Sudoeste 5 Oeste 0 1008.8 -- 70
2020-11-16 18:00:00 21.5 2 Sudoeste 4 Este 0 1008.4 -- 63
2020-11-16 17:00:00 22.6 4 Este 13 Este 0 1008.5 -- 60
2020-11-16 16:00:00 22.8 6 Nordeste 11 Nordeste 0 1008.3 -- 62
2020-11-16 15:00:00 22.8 2 Sudoeste 9 Sur 0 1008.3 -- 63
2020-11-16 14:00:00 20.9 2 Sur 7 Sur 0 1008.6 -- 73
2020-11-16 13:00:00 18.8 3 Sur 9 Este 0 1009.8 -- 86
2020-11-16 12:00:00 17.6 0 Calma 5 Sur 0 1010.5 -- 90
2020-11-16 11:00:00 16.6 0 Calma 5 Norte 0 1010.2 -- 90
2020-11-16 10:00:00 15.3 0 Calma 4 Nordeste 0 1009.6 -- 90
2020-11-16 09:00:00 14.6 0 Calma 6 Noroeste 0 1009.2 -- 90
2020-11-16 08:00:00 13.2 2 Sudeste 9 Sudeste 0 1008.7 -- 90
2020-11-16 07:00:00 13.1 4 Sudeste 13 Sudoeste 0 1008.1 -- 90
2020-11-16 06:00:00 12.7 5 Sudeste 8 Sudeste 0 1007.9 -- 89
2020-11-16 05:00:00 14.1 2 Sur 6 Sudoeste 0 1007.7 -- 89
2020-11-16 04:00:00 14.5 0 Calma 6 Sudoeste 0 1008.3 -- 88
2020-11-16 03:00:00 15.5 3 Sudoeste 6 Sudoeste 0 1007.6 -- 88
2020-11-16 02:00:00 15.5 0 Calma 5 Sur 0 1007.4 -- 88
2020-11-16 01:00:00 16.1 2 Norte 6 Sudoeste 0 1007.7 -- 87
2020-11-16 00:00:00 16.3 2 Sur 5 Sur 0 1007.5 -- 85
2020-11-15 23:00:00 17.6 0 Calma 5 Sur 0 1007.8 -- 83
2020-11-15 22:00:00 18.6 2 Sur 4 Sur 0 1007.8 -- 80
2020-11-15 21:00:00 19.3 3 Noroeste 6 Noroeste 0 1007.7 -- 78
2020-11-15 20:00:00 20 6 Noroeste 8 Noroeste 0 1007.5 -- 75
2020-11-15 19:00:00 21.4 6 Noroeste 9 Noroeste 0 1006.9 -- 64
2020-11-15 18:00:00 23.2 4 Norte 9 Norte 0 1006.1 -- 57
2020-11-15 17:00:00 24.8 3 Norte 9 Noroeste 0 1006.1 -- 49
2020-11-15 16:00:00 26.1 0 Calma 10 Noroeste 0 1006.2 -- 46
2020-11-15 15:00:00 25.5 0 Calma 18 Nordeste 0 1006.3 -- 48
2020-11-15 14:00:00 24.1 4 Nordeste 11 Nordeste 0 1006.9 -- 53
2020-11-15 13:00:00 22.8 6 Este 19 Este 0 1007.4 -- 59
2020-11-15 12:00:00 20.8 9 Este 16 Este 0 1008.2 -- 69
2020-11-15 11:00:00 18.4 8 Este 14 Este 0 1008.4 -- 78
2020-11-15 10:00:00 16 7 Sudeste 12 Este 0 1008.4 -- 90
2020-11-15 09:00:00 13.7 2 Sudeste 6 Sudeste 0 1008.2 -- 90
2020-11-15 08:00:00 13.8 2 Sur 4 Sur 0.1 1007.8 -- 90
2020-11-15 07:00:00 13.6 0 Calma 5 Noroeste 0 1007.7 -- 90
2020-11-15 06:00:00 14 0 Calma 3 Oeste 0 1007.6 -- 90
2020-11-15 05:00:00 14.3 0 Calma 5 Sur 0 1007.1 -- 90
2020-11-15 04:00:00 13.9 4 Sur 5 Sudeste 0 1007.4 -- 90
2020-11-15 03:00:00 14.8 0 Calma 7 Sudeste 0 1007.7 -- 90
2020-11-15 02:00:00 14.8 0 Calma 3 Sudoeste 0 1008 -- 90
2020-11-15 01:00:00 15.4 0 Calma 4 Sur 0 1008.1 -- 90
2020-11-15 00:00:00 16.1 3 Sur 6 Sudeste 0 1008.4 -- 90
2020-11-14 23:00:00 16 5 Sur 6 Sur 0 1008.2 -- 89
2020-11-14 22:00:00 16.7 4 Sur 6 Sudoeste 0 1008 -- 88
2020-11-14 21:00:00 16.9 4 Sudoeste 6 Sudoeste 0 1007.7 -- 87
2020-11-14 20:00:00 17.5 0 Calma 3 Este 0 1007.3 -- 84
2020-11-14 19:00:00 18.8 0 Calma 11 Noroeste 0 1006.9 -- 83
2020-11-14 18:00:00 20 6 Oeste 26 Sudoeste 0 1006.4 -- 75
2020-11-14 17:00:00 21.1 10 Oeste 21 Oeste 0 1005.9 -- 72
2020-11-14 16:00:00 20.4 12 Oeste 24 Oeste 0 1005.7 -- 73
2020-11-14 15:00:00 19.8 9 Sudoeste 13 Sudoeste 0 1005.5 -- 80
2020-11-14 14:00:00 18.6 5 Sudeste 7 Sudeste 0.2 1006.1 -- 84
2020-11-14 13:00:00 18.5 4 Sudeste 7 Sudeste 0.1 1006.6 -- 83
2020-11-14 12:00:00 18.1 0 Calma 5 Este 0.3 1007 -- 84
2020-11-14 11:00:00 18 0 Calma 5 Sudeste 0 1006.8 -- 84
2020-11-14 10:00:00 17.2 4 Sudeste 6 Sur 0 1006.5 -- 85
2020-11-14 09:00:00 16.9 3 Sur 6 Sudeste 0.1 1005.9 -- 85
2020-11-14 08:00:00 16.5 3 Sudeste 6 Este 0 1005.3 -- 85
2020-11-14 07:00:00 16.4 2 Sur 9 Sudeste 0 1005.1 -- 85
2020-11-14 06:00:00 16.7 4 Sudoeste 5 Sudoeste 0 1004.9 -- 83
2020-11-14 05:00:00 16.7 0 Calma 4 Sur 0 1004.7 -- 80
2020-11-14 04:00:00 16.9 0 Calma 3 Sur 0 1004.9 -- 80
2020-11-14 03:00:00 16.8 2 Sur 5 Sudeste 0 1005.1 -- 82
2020-11-14 02:00:00 16.9 3 Este 5 Este 0 1005.2 -- 80
2020-11-14 01:00:00 17 0 Calma 6 Sur 0 1005.8 -- 80
2020-11-14 00:00:00 17.3 5 Sudeste 8 Sudeste 0 1005.8 -- 78
2020-11-13 23:00:00 17.6 0 Calma 9 Sudoeste 0 1005.7 -- 75
2020-11-13 22:00:00 18.5 5 Sudoeste 8 Sudoeste 0 1005.5 -- 70
2020-11-13 21:00:00 18.9 0 Calma 4 Noroeste 0 1005.1 -- 67
2020-11-13 20:00:00 19.5 0 Calma 5 Sur 0 1004.8 -- 62
2020-11-13 19:00:00 20.2 0 Calma 6 Norte 0 1004.4 -- 57
2020-11-13 18:00:00 21.1 5 Norte 11 Sudeste 0 1003.9 -- 52
2020-11-13 17:00:00 22.7 0 Calma 8 Nordeste 0 1003.9 -- 45
2020-11-13 16:00:00 23.6 0 Calma 7 Este 0 1003.8 -- 42
2020-11-13 15:00:00 23.3 2 Este 10 Sudeste 0 1004.1 -- 43
2020-11-13 14:00:00 22.9 3 Sudeste 10 Sur 0 1004.6 -- 49
2020-11-13 13:00:00 21.6 2 Este 10 Este 0 1005.4 -- 54
2020-11-13 12:00:00 19.4 4 Este 10 Sudeste 0 1006.2 -- 61
2020-11-13 11:00:00 17.5 5 Este 9 Este 0 1006.2 -- 65
2020-11-13 10:00:00 14.8 0 Calma 6 Sur 0 1006.3 -- 78
2020-11-13 09:00:00 11.9 2 Sudeste 6 Sur 0 1005.3 -- 86
2020-11-13 08:00:00 11.1 2 Sur 6 Sur 0 1005.1 -- 86
2020-11-13 07:00:00 11.3 0 Calma 3 Sur 0 1004.6 -- 86
2020-11-13 06:00:00 11.4 0 Calma 3 Sur 0 1004.3 -- 86
2020-11-13 05:00:00 11.5 0 Calma 2 Sudoeste 0 1004.3 -- 87
2020-11-13 04:00:00 11.8 0 Calma 5 Sudeste 0 1004.2 -- 86
2020-11-13 03:00:00 12.2 3 Sur 5 Sudeste 0 1004.4 -- 85
2020-11-13 02:00:00 12.8 0 Calma 4 Sudoeste 0 1004.5 -- 83
2020-11-13 01:00:00 13 3 Sudeste 8 Sudeste 0 1004.6 -- 80
2020-11-13 00:00:00 13.6 5 Sur 7 Sudeste 0 1004.9 -- 78
2020-11-12 23:00:00 14.7 2 Sur 8 Sur 0 1004.5 -- 76
2020-11-12 22:00:00 15.6 4 Sudeste 13 Sur 0 1004.3 -- 73
2020-11-12 21:00:00 16.4 0 Calma 7 Este 0 1004.1 -- 67
2020-11-12 20:00:00 17.8 0 Calma 8 Norte 0 1003.9 -- 61
2020-11-12 19:00:00 18.2 0 Calma 14 Sur 0 1003.7 -- 58
2020-11-12 18:00:00 19.1 9 Sudeste 19 Sudeste 0 1003.5 -- 53
2020-11-12 17:00:00 21.1 12 Sur 22 Sudeste 0 1003.3 -- 46
2020-11-12 16:00:00 22.2 10 Este 23 Este 0 1003.2 -- 42
2020-11-12 15:00:00 22.2 15 Este 26 Este 0 1003.5 -- 42
2020-11-12 14:00:00 21.3 15 Este 26 Este 0 1004 -- 47
2020-11-12 13:00:00 20.5 16 Este 23 Este 0 1005.1 -- 52
2020-11-12 12:00:00 18.4 14 Este 19 Este 0 1006.4 -- 59
2020-11-12 11:00:00 16 12 Este 15 Este 0 1006.9 -- 73
2020-11-12 10:00:00 13.5 3 Sudeste 10 Sudeste 0 1006.9 -- 85
2020-11-12 09:00:00 12.1 4 Sudeste 6 Sur 0 1006.8 -- 85
2020-11-12 08:00:00 11.7 4 Sur 9 Sudeste 0 1006.6 -- 85
2020-11-12 07:00:00 12.2 0 Calma 12 Este 0 1006.4 -- 85
2020-11-12 06:00:00 12.1 0 Calma 11 Sudeste 0 1006.6 -- 87
2020-11-12 05:00:00 12 8 Sudeste 13 Este 0 1006.5 -- 86
2020-11-12 04:00:00 12.4 4 Sur 6 Sur 0 1007.1 -- 85
2020-11-12 03:00:00 12.7 3 Norte 7 Nordeste 0 1007.4 -- 84
2020-11-12 02:00:00 12.9 2 Noroeste 4 Oeste 0 1007.7 -- 84
2020-11-12 01:00:00 12.8 0 Calma 7 Norte 0 1007.8 -- 83
2020-11-12 00:00:00 13.4 0 Calma 6 Sudeste 0 1007.9 -- 80
2020-11-11 23:00:00 14.5 4 Sur 13 Sur 0 1007.9 -- 75
2020-11-11 22:00:00 14.5 3 Sur 9 Sudoeste 0 1007.9 -- 74
2020-11-11 21:00:00 15.9 3 Sudoeste 5 Sudeste 0 1007.5 -- 67
2020-11-11 20:00:00 17.3 4 Sur 17 Sur 0 1007.6 -- 61
2020-11-11 19:00:00 18.4 8 Sudeste 13 Sur 0 1007.1 -- 56
2020-11-11 18:00:00 19.8 5 Sur 13 Sur 0 1006.6 -- 52
2020-11-11 17:00:00 21.4 9 Sur 18 Sur 0 1006.5 -- 46
2020-11-11 16:00:00 22.4 12 Sur 22 Sudeste 0 1006.4 -- 43
2020-11-11 15:00:00 22.8 13 Sur 22 Sur 0 1006.1 -- 44
2020-11-11 14:00:00 22.2 13 Sudeste 20 Sudeste 0 1007 -- 47
2020-11-11 13:00:00 21.2 15 Este 24 Sudeste 0 1008.1 -- 52
2020-11-11 12:00:00 19.7 13 Este 18 Este 0 1008.9 -- 58
2020-11-11 11:00:00 17.7 10 Sudeste 17 Este 0 1009.3 -- 64
2020-11-11 10:00:00 14.7 3 Sudeste 7 Este 0 1009.6 -- 80
2020-11-11 09:00:00 12.4 2 Norte 6 Norte 0 1009.4 -- 88
2020-11-11 08:00:00 10.4 3 Sur 12 Sudeste 0 1009.2 -- 89
2020-11-11 07:00:00 10.6 4 Sudeste 7 Sudeste 0 1009 -- 89
2020-11-11 06:00:00 11.4 0 Calma 10 Sudeste 0 1009.2 -- 89
2020-11-11 05:00:00 11.1 0 Calma 9 Sur 0 1009.3 -- 88
2020-11-11 04:00:00 11.2 0 Calma 6 Sur 0 1009.9 -- 87
2020-11-11 03:00:00 11.6 0 Calma 6 Noroeste 0 1009.9 -- 86
2020-11-11 02:00:00 11.8 0 Calma 7 Sudoeste 0 1010.2 -- 85
2020-11-11 01:00:00 12.8 2 Noroeste 5 Noroeste 0 1010 -- 85
2020-11-11 00:00:00 12.8 0 Calma 8 Sur 0 1010.4 -- 83
2020-11-10 23:00:00 13.5 4 Sur 8 Sudoeste 0 1010.1 -- 83
2020-11-10 22:00:00 13.7 3 Sudeste 13 Sudoeste 0 1009.9 -- 78
2020-11-10 21:00:00 15.7 0 Calma 6 Sur 0 1009.5 -- 72
2020-11-10 20:00:00 16.9 0 Calma 4 Norte 0 1009.2 -- 63
2020-11-10 19:00:00 18.4 0 Calma 6 Nordeste 0 1009 -- 56
2020-11-10 18:00:00 21 3 Nordeste 12 Nordeste 0 1008.8 -- 46
2020-11-10 17:00:00 22.2 7 Nordeste 14 Sudeste 0 1008.8 -- 45
2020-11-10 16:00:00 22.3 6 Este 14 Este 0 1008.7 -- 46
2020-11-10 15:00:00 21 8 Nordeste 18 Este 0 1008.8 -- 54
2020-11-10 14:00:00 19.7 8 Este 19 Este 0 1009.6 -- 62
2020-11-10 13:00:00 18.3 14 Este 25 Nordeste 0 1010.4 -- 73
2020-11-10 12:00:00 14.3 10 Este 16 Nordeste 0 1011.2 -- 91
2020-11-10 11:00:00 12.3 0 Calma 4 Este 0 1011.5 -- 91
2020-11-10 10:00:00 11.3 0 Calma 4 Nordeste 0 1011.6 -- 91
2020-11-10 09:00:00 10.3 0 Calma 2 Nordeste 0 1011.2 -- 91
2020-11-10 08:00:00 10 0 Calma 2 Este 0.1 1010.5 -- 91
2020-11-10 07:00:00 10.3 0 Calma -- -- 0 1010 -- 91
2020-11-10 06:00:00 10.4 0 Calma -- -- 0 1010 -- 90
2020-11-10 05:00:00 10.4 0 Calma -- -- 0 1009.8 -- 90
2020-11-10 04:00:00 10.8 0 Calma -- -- 0.1 1009.7 -- 90
2020-11-10 03:00:00 11.1 0 Calma 2 Noroeste 0 1009.8 -- 90
2020-11-10 02:00:00 11.9 0 Calma 6 Sur 0 1009.7 -- 89
2020-11-10 01:00:00 12.3 2 Sur 4 Sur 0 1009.8 -- 89
2020-11-10 00:00:00 12.7 2 Sur 5 Sudoeste 0 1010 -- 87
2020-11-09 23:00:00 13.6 0 Calma 4 Sur 0 1010 -- 85
2020-11-09 22:00:00 14.2 0 Calma 2 Este 0 1009.6 -- 83
2020-11-09 21:00:00 15.1 0 Calma 3 Oeste 0 1009.3 -- 79
2020-11-09 20:00:00 16.2 0 Calma 4 Sudoeste 0 1009.1 -- 75
2020-11-09 19:00:00 17.9 2 Oeste 4 Oeste 0 1008.6 -- 68
2020-11-09 18:00:00 19.4 0 Calma -- -- 0 1008.1 -- 63
2020-11-09 17:00:00 20.4 0 Calma 5 Nordeste 0 1008 -- 59
2020-11-09 16:00:00 20.6 0 Calma 6 Oeste 0 1007.8 -- 59
2020-11-09 15:00:00 19.7 0 Calma 11 Norte 0 1007.9 -- 66
2020-11-09 14:00:00 18.3 0 Calma 9 Nordeste 0 1008.3 -- 70
2020-11-09 13:00:00 17.4 0 Calma 8 Sudeste 0 1008.9 -- 79
2020-11-09 12:00:00 16 5 Sudeste 8 Sudeste 0 1009.3 -- 86
2020-11-09 11:00:00 14.2 0 Calma 6 Sur 0.1 1009.5 -- 88
2020-11-09 10:00:00 13.5 4 Sur 6 Sudoeste 0.2 1009.2 -- 88
2020-11-09 09:00:00 13 0 Calma 4 Sur 0 1008.8 -- 89
2020-11-09 08:00:00 12.8 2 Sudeste 4 Sudeste 0 1007.9 -- 89
2020-11-09 07:00:00 12.5 3 Sudeste 5 Sudeste 0 1007.3 -- 90
2020-11-09 06:00:00 12.3 2 Sudeste 7 Sudeste 0 1006.7 -- 90
2020-11-09 05:00:00 12.6 0 Calma 4 Sudeste 0 1006.8 -- 90
2020-11-09 04:00:00 12.9 3 Sur 4 Sur 0 1006.7 -- 89
2020-11-09 03:00:00 13.5 4 Sudeste 6 Sur 0 1007 -- 89
2020-11-09 02:00:00 14.4 3 Sur 5 Sudeste 0 1006.8 -- 88
2020-11-09 01:00:00 14.7 2 Este 7 Sudeste 0 1007.1 -- 87
2020-11-09 00:00:00 15 0 Calma 7 Sudeste 0 1007.3 -- 85
2020-11-08 23:00:00 15.8 0 Calma 6 Sur 0 1007.2 -- 83
2020-11-08 22:00:00 16.2 0 Calma 7 Sudeste 0 1007.1 -- 81
2020-11-08 21:00:00 16.8 2 Sudoeste 8 Sudeste 0 1006.8 -- 78
2020-11-08 20:00:00 18.1 7 Oeste 9 Oeste 0 1006.5 -- 70
2020-11-08 19:00:00 18.9 4 Sudoeste 6 Noroeste 0 1006.4 -- 67
2020-11-08 18:00:00 21.3 3 Oeste 8 Noroeste 0 1006.1 -- 57
2020-11-08 17:00:00 22.6 4 Oeste 12 Sudoeste 0 1006.1 -- 48
2020-11-08 16:00:00 23 6 Oeste 15 Oeste 0 1006.1 -- 48
2020-11-08 15:00:00 22.7 6 Noroeste 14 Noroeste 0 1006.1 -- 49
2020-11-08 14:00:00 22 4 Norte 12 Norte 0 1006.5 -- 51
2020-11-08 13:00:00 20.9 0 Calma 8 Este 0 1007.5 -- 56
2020-11-08 12:00:00 19.2 0 Calma 7 Este 0 1008.2 -- 66
2020-11-08 11:00:00 16.3 2 Este 7 Sudeste 0 1008.6 -- 79
2020-11-08 10:00:00 13.6 3 Sudeste 8 Sudeste 0 1008.8 -- 89
2020-11-08 09:00:00 11.7 3 Sudeste 6 Sudeste 0 1008.5 -- 90
2020-11-08 08:00:00 11 2 Sur 4 Sur 0 1008.3 -- 90
2020-11-08 07:00:00 11.2 0 Calma 4 Sur 0.1 1008.1 -- 90
2020-11-08 06:00:00 11.5 3 Sur 7 Este 0 1008 -- 90
2020-11-08 05:00:00 11.6 0 Calma 6 Sur 0 1008 -- 90
2020-11-08 04:00:00 11.9 3 Sur 7 Sudeste 0 1008.1 -- 90
2020-11-08 03:00:00 12.4 5 Sudeste 9 Este 0 1008.2 -- 90
2020-11-08 02:00:00 12.5 2 Sudeste 6 Sudeste 0 1008.4 -- 89
2020-11-08 01:00:00 13.1 4 Sur 8 Sudeste 0 1008.7 -- 89
2020-11-08 00:00:00 13.7 4 Sur 8 Sudeste 0 1009.1 -- 88
2020-11-07 23:00:00 13.8 2 Sur 11 Sudoeste 0 1009.1 -- 87
2020-11-07 22:00:00 14.5 6 Sur 12 Sudeste 0 1008.9 -- 84
2020-11-07 21:00:00 15.3 4 Sur 13 Sudeste 0 1008.6 -- 82
2020-11-07 20:00:00 16.8 7 Oeste 12 Oeste 0 1008.2 -- 74
2020-11-07 19:00:00 17.9 8 Oeste 10 Oeste 0 1007.7 -- 69
2020-11-07 18:00:00 19.7 5 Oeste 20 Sudoeste 0 1007.3 -- 62
2020-11-07 17:00:00 21.4 14 Oeste 23 Sudoeste 0 1007 -- 54
2020-11-07 16:00:00 21.7 9 Oeste 21 Oeste 0 1006.9 -- 54
2020-11-07 15:00:00 20.8 17 Oeste 25 Oeste 0 1006.8 -- 56
2020-11-07 14:00:00 21.5 15 Oeste 24 Sudoeste 0 1006.9 -- 59
2020-11-07 13:00:00 19.6 12 Oeste 26 Sudoeste 0 1006.9 -- 62
2020-11-07 12:00:00 19.2 16 Sudoeste 31 Oeste 0 1007 -- 65
2020-11-07 11:00:00 18.8 18 Sudoeste 31 Oeste 0 1006.3 -- 73
2020-11-07 10:00:00 17.5 17 Sudoeste 26 Sudoeste 0 1005.4 -- 84
2020-11-07 09:00:00 15.5 15 Sudoeste 21 Sudoeste 0.7 1004 -- 89
2020-11-07 08:00:00 14.8 10 Sudoeste 20 Sudoeste 0 1002.5 -- 89
2020-11-07 07:00:00 13.8 5 Sudeste 10 Sudeste 0.2 1001.1 -- 89
2020-11-07 06:00:00 13.9 3 Sudeste 12 Nordeste 2.6 1000.5 -- 88
2020-11-07 05:00:00 13.8 6 Norte 13 Norte 0.9 999.4 -- 87
2020-11-07 04:00:00 13.7 2 Sudeste 21 Oeste 0.8 999.9 -- 84
2020-11-07 03:00:00 14.1 15 Oeste 48 Oeste 2.9 1000.7 -- 79
2020-11-07 02:00:00 16.4 17 Noroeste 34 Noroeste 0 999.8 -- 72
2020-11-07 01:00:00 17.9 0 Calma 16 Sur 0 999 -- 69
2020-11-07 00:00:00 18.3 14 Sudeste 25 Sur 0 998.9 -- 66
2020-11-06 23:00:00 17.9 16 Sur 24 Sur 0 998.9 -- 69
2020-11-06 22:00:00 17.8 15 Sur 41 Sur 1.3 999.1 -- 69
2020-11-06 21:00:00 18.9 14 Sur 34 Oeste 0.7 999.4 -- 69
2020-11-06 20:00:00 19.6 15 Noroeste 36 Oeste 0 998.1 -- 73
2020-11-06 19:00:00 20.2 7 Oeste 24 Oeste 0 997.7 -- 74
2020-11-06 18:00:00 21.5 13 Oeste 23 Oeste 0 997.3 -- 67
2020-11-06 17:00:00 22.5 0 Calma 27 Oeste 0 996.3 -- 63
2020-11-06 16:00:00 22.6 18 Oeste 26 Oeste 0 996.6 -- 58
2020-11-06 15:00:00 26 21 Sudoeste 33 Sudoeste 0 995 -- 41
2020-11-06 14:00:00 21.4 3 Nordeste 18 Norte 0 995.6 -- 61
2020-11-06 13:00:00 20.3 9 Norte 23 Noroeste 0 995.7 -- 61
2020-11-06 12:00:00 20.4 6 Norte 12 Norte 0 996.3 -- 63
2020-11-06 11:00:00 18.4 0 Calma 4 Oeste 0 996.1 0.1 63
2020-11-06 10:00:00 16.4 2 Sudoeste 6 Este 0 996.2 -- 73
2020-11-06 09:00:00 15.1 2 Este 9 Este 0 996.2 -- 75
2020-11-06 08:00:00 14.7 0 Calma 10 Este 0 996 -- 75
2020-11-06 07:00:00 14.5 0 Calma 7 Sur 0 996.8 -- 78
2020-11-06 06:00:00 14.5 0 Calma 8 Sur 0 997.3 -- 78
2020-11-06 05:00:00 14.8 3 Sudeste 10 Sudeste 0 997.6 -- 77
2020-11-06 04:00:00 15.1 3 Este 12 Sudeste 0 998.3 -- 79
2020-11-06 03:00:00 15.2 3 Norte 8 Norte 0.1 998.6 -- 83
2020-11-06 02:00:00 15.1 5 Norte 9 Noroeste 0 999.4 -- 82
2020-11-06 01:00:00 15.1 0 Calma 6 Oeste 0 999.2 -- 80
2020-11-06 00:00:00 14.9 3 Sudeste 5 Sur 0 999.5 -- 82
2020-11-05 23:00:00 15.1 0 Calma 8 Sudeste 0 998.9 -- 82
2020-11-05 22:00:00 15.3 3 Sur 10 Sudeste 0 998.8 -- 80
2020-11-05 21:00:00 15.6 9 Sudeste 13 Sudeste 0 998.7 -- 82
2020-11-05 20:00:00 15.6 8 Sudeste 14 Sudeste 0 998.4 -- 82
2020-11-05 19:00:00 16.3 7 Este 10 Nordeste 0 998.3 -- 80
2020-11-05 18:00:00 17 7 Este 19 Este 0 998 -- 80
2020-11-05 17:00:00 17.3 13 Este 23 Este 0 998.3 -- 83
2020-11-05 16:00:00 17.2 14 Sudeste 21 Sudeste 0 998.3 -- 88
2020-11-05 15:00:00 16 8 Sudeste 13 Este 6 998.5 -- 90
2020-11-05 14:00:00 15.2 3 Sur 14 Noroeste 13 998.7 -- 90
2020-11-05 13:00:00 15.4 4 Norte 15 Norte 9.3 999.2 -- 90
2020-11-05 12:00:00 16.1 2 Oeste 12 Sudoeste 12.7 1000.2 -- 89
2020-11-05 11:00:00 15.9 0 Calma 9 Este 1.4 999.7 -- 88
2020-11-05 10:00:00 16 2 Nordeste 9 Este 0.1 999.4 -- 88
2020-11-05 09:00:00 15.9 2 Nordeste 6 Nordeste 0.4 998.9 -- 88
2020-11-05 08:00:00 15.7 0 Calma 6 Norte 0.2 998.4 -- 88
2020-11-05 07:00:00 15.4 3 Norte 6 Noroeste 0 997.2 -- 89
2020-11-05 06:00:00 15.2 0 Calma 10 Este 0.1 996.7 -- 89
2020-11-05 05:00:00 15.3 3 Este 6 Este 0.1 996 -- 89
2020-11-05 04:00:00 15.3 0 Calma 8 Nordeste 1 996.1 -- 89
2020-11-05 03:00:00 15.2 2 Nordeste 14 Este 4.4 996.8 -- 89
2020-11-05 02:00:00 15.5 4 Nordeste 9 Sudeste 5.8 997.4 -- 87
2020-11-05 01:00:00 15.8 3 Este 10 Este 0.6 997 -- 82
2020-11-05 00:00:00 15.4 3 Norte 10 Nordeste 0 997.1 -- 84
2020-11-04 23:00:00 15.5 8 Sudeste 15 Este 0 997.8 -- 82
2020-11-04 22:00:00 15.4 11 Este 17 Este 0 997.8 -- 82
2020-11-04 21:00:00 16.1 5 Este 12 Este 0 997.9 -- 77
2020-11-04 20:00:00 16.4 0 Calma 10 Sur 0 998.2 -- 73
2020-11-04 19:00:00 17.7 11 Sur 19 Sur 0 997.8 -- 67
2020-11-04 18:00:00 18.4 15 Sudeste 27 Sur 0 998 -- 65
2020-11-04 17:00:00 19.5 9 Sudeste 19 Este 0 998.3 -- 70
2020-11-04 16:00:00 20.6 12 Sudeste 19 Este 0 998.4 -- 67
2020-11-04 15:00:00 20.4 10 Este 17 Este 0 998.9 -- 69
2020-11-04 14:00:00 19.2 8 Este 14 Sudeste 0 1000.2 -- 73
2020-11-04 13:00:00 18.7 8 Este 17 Sur 0 1001.1 -- 78
2020-11-04 12:00:00 18.1 7 Sur 10 Sudeste 0 1002.2 -- 85
2020-11-04 11:00:00 16.9 4 Sur 8 Este 1.2 1003 0 88
2020-11-04 10:00:00 16.2 3 Sudeste 8 Sudeste 0 1003.6 -- 88
2020-11-04 09:00:00 15.7 3 Este 9 Sudeste 0 1003.2 -- 88
2020-11-04 08:00:00 15.5 3 Sudeste 8 Sur 0 1003 -- 87
2020-11-04 07:00:00 15.3 0 Calma 6 Sur 0 1003.3 -- 86
2020-11-04 06:00:00 15.3 0 Calma 10 Sudeste 0 1003.7 -- 85
2020-11-04 05:00:00 16.3 8 Sudeste 18 Sur 0 1004 -- 80
2020-11-04 04:00:00 16.4 6 Sur 15 Sudoeste 3.9 1004.5 -- 78
2020-11-04 03:00:00 18.5 0 Calma 17 Nordeste 1.6 1005.4 -- 73
2020-11-04 02:00:00 18.4 6 Norte 10 Norte 0 1005.3 -- 69
2020-11-04 01:00:00 19.2 4 Norte 18 Oeste 0 1006.1 -- 67
2020-11-04 00:00:00 18.8 2 Noroeste 5 Sudoeste 0 1006.4 -- 67
2020-11-03 23:00:00 19.8 5 Noroeste 11 Noroeste 0 1006.8 -- 66
2020-11-03 22:00:00 20.3 0 Calma 16 Oeste 0 1007.1 -- 67
2020-11-03 21:00:00 20.6 9 Norte 24 Norte 0 1006.8 -- 66
2020-11-03 20:00:00 21.1 10 Norte 24 Norte 0 1006.8 -- 65
2020-11-03 19:00:00 22.3 12 Norte 21 Norte 0 1006.6 -- 62
2020-11-03 18:00:00 23.8 13 Noroeste 19 Noroeste 0 1006.3 -- 54
2020-11-03 17:00:00 24.5 13 Norte 22 Noroeste 0 1006.1 -- 52
2020-11-03 16:00:00 25.2 12 Norte 17 Noroeste 0 1006.1 -- 47
2020-11-03 15:00:00 25.2 9 Norte 18 Norte 0 1006.2 -- 47
2020-11-03 14:00:00 24.9 9 Norte 17 Noroeste 0 1006.6 -- 49
2020-11-03 13:00:00 24.1 3 Nordeste -- -- -- 1007.4 -- 56
2020-11-03 12:00:00 22.7 3 Norte 12 Este 0 1007.9 -- 56
2020-11-03 11:00:00 19.9 7 Sudeste 11 Este 0 1008.3 -- 59
2020-11-03 10:00:00 16 5 Sudeste 7 Sur 0 1008.4 -- 65
2020-11-03 09:00:00 14.6 0 Calma 4 Sudoeste 0 1008.3 -- 70
2020-11-03 08:00:00 10.9 0 Calma 4 Sudeste 0 1007.9 -- 77
2020-11-03 07:00:00 11.1 0 Calma 17 Sudeste 0 1007.7 -- 78
2020-11-03 06:00:00 11.3 0 Calma 5 Sur 0 1007.8 -- 74
2020-11-03 05:00:00 11.6 0 Calma 8 Sudoeste 0 1007.4 -- 73
2020-11-03 04:00:00 11.9 0 Calma 3 Sur 0 1007.6 -- 71
2020-11-03 03:00:00 12.9 0 Calma 4 Sur 0 1007.4 -- 71
2020-11-03 02:00:00 13.1 3 Sur 7 Sudeste 0 1007.2 -- 69
2020-11-03 01:00:00 13.8 2 Sudeste 5 Sudeste 0 1007.2 -- 64
2020-11-03 00:00:00 15 0 Calma 3 Norte 0 1007.4 -- 61
2020-11-02 23:00:00 16.9 2 Norte 8 Noroeste 0 1007.4 -- 55
2020-11-02 22:00:00 18 4 Noroeste 9 Noroeste 0 1007.3 -- 48
2020-11-02 21:00:00 19.4 0 Calma 4 Sudoeste 0 1006.7 -- 43
2020-11-02 20:00:00 21.8 2 Noroeste 11 Noroeste 0 1006.3 -- 40
2020-11-02 19:00:00 23.1 9 Noroeste 11 Noroeste 0 1005.8 -- 37
2020-11-02 18:00:00 26.5 6 Norte 13 Norte 0 1005.3 -- 33
2020-11-02 17:00:00 28.9 8 Norte 11 Norte 0 1005 -- 30
2020-11-02 16:00:00 29.5 5 Norte 13 Norte 0 1005.2 -- 28
2020-11-02 15:00:00 29.3 3 Este 11 Nordeste 0 1005.5 -- 31
2020-11-02 14:00:00 28.1 6 Norte 19 Nordeste 0 1006.2 -- 32
2020-11-02 13:00:00 26.5 4 Nordeste 15 Este 0 1007.2 -- 37
2020-11-02 12:00:00 24.2 3 Nordeste 9 Nordeste 0 1008 -- 46
2020-11-02 11:00:00 20.4 3 Norte 7 Nordeste 0 1008.2 -- 58
2020-11-02 10:00:00 17.2 0 Calma 4 Este 0 1008.6 -- 67
2020-11-02 09:00:00 13.5 0 Calma 3 Sudoeste 0 1008.3 -- 79
2020-11-02 08:00:00 11 0 Calma 5 Norte 0 1007.8 -- 82
2020-11-02 07:00:00 10.7 3 Noroeste 4 Noroeste 0 1007.6 -- 80
2020-11-02 06:00:00 11.5 0 Calma 2 Sudoeste 0 1007.3 -- 80
2020-11-02 05:00:00 12.2 0 Calma 4 Sudeste 0 1007.3 -- 78
2020-11-02 04:00:00 12.7 2 Sur 4 Sur 0 1007.3 -- 77
2020-11-02 03:00:00 13.1 0 Calma 3 Sur 0 1007.5 -- 74
2020-11-02 02:00:00 14.3 2 Sur 4 Sur 0 1007.6 -- 72
2020-11-02 01:00:00 15 3 Sur 5 Sur 0 1007.9 -- 71
2020-11-02 00:00:00 15.6 3 Sur 6 Sur 0 1008 -- 67
2020-11-01 23:00:00 16.6 3 Sur 6 Sudeste 0 1008.2 -- 61
2020-11-01 22:00:00 17.5 0 Calma 5 Sudoeste 0 1008.1 -- 52
2020-11-01 21:00:00 19.4 0 Calma 6 Noroeste 0 1007.7 -- 47
2020-11-01 20:00:00 21.2 5 Noroeste 10 Noroeste 0 1007.5 -- 43
2020-11-01 19:00:00 22.6 8 Noroeste 9 Noroeste 0 1006.9 -- 38
2020-11-01 18:00:00 25.9 6 Noroeste 13 Norte 0 1006.8 -- 34
2020-11-01 17:00:00 28.1 6 Norte 14 Nordeste 0 1007 -- 32
2020-11-01 16:00:00 28.3 6 Nordeste 15 Norte 0 1007.3 -- 32
2020-11-01 15:00:00 27.9 4 Nordeste 16 Nordeste 0 1007.8 -- 33
2020-11-01 14:00:00 27 6 Nordeste 16 Nordeste 0 1008.5 -- 35
2020-11-01 13:00:00 25.3 10 Nordeste 19 Este 0 1009.4 -- 39
2020-11-01 12:00:00 23.6 9 Este 16 Este 0 1010.2 -- 46
2020-11-01 11:00:00 19.5 3 Este 9 Este 0 1010.6 -- 60
2020-11-01 10:00:00 16 0 Calma 6 Sudeste 0 1010.7 -- 70
2020-11-01 09:00:00 12.9 2 Norte 8 Sudoeste 0 1010.3 -- 79
2020-11-01 08:00:00 11.1 0 Calma 6 Noroeste 0 1009.9 -- 83
2020-11-01 07:00:00 11.4 0 Calma 4 Sudoeste 0 1009.7 -- 84
2020-11-01 06:00:00 10.9 0 Calma 5 Sudoeste 0 1009.3 -- 82
2020-11-01 05:00:00 11.8 3 Sudoeste 9 Sudeste 0 1009.6 -- 80
2020-11-01 04:00:00 12.6 0 Calma 8 Sudeste 0 1010.2 -- 80
2020-11-01 03:00:00 12.7 3 Sur 6 Sudeste 0 1010 -- 78
2020-11-01 02:00:00 13.1 0 Calma 8 Sudeste 0 1010.1 -- 77
2020-11-01 01:00:00 14.2 4 Sur 8 Sudeste 0 1010 -- 72
2020-11-01 00:00:00 14.9 4 Sudeste 7 Sudeste 0 1010.1 -- 68
2020-10-31 23:00:00 15.9 3 Sudeste 8 Sudeste 0 1010 -- 61
2020-10-31 22:00:00 17.9 2 Sur 9 Sudoeste 0 1009.8 -- 54
2020-10-31 21:00:00 19.9 3 Sudeste 14 Oeste 0 1009.5 -- 46
2020-10-31 20:00:00 22.2 11 Oeste 20 Oeste 0 1008.9 -- 42
2020-10-31 19:00:00 23.2 9 Oeste 13 Oeste 0 1008.5 -- 38
2020-10-31 18:00:00 26.2 6 Sudoeste 9 Noroeste 0 1008 -- 35
2020-10-31 17:00:00 27.7 6 Noroeste 12 Norte 0 1008.2 -- 32
2020-10-31 16:00:00 28.2 4 Noroeste 11 Noroeste 0 1008.6 -- 32
2020-10-31 15:00:00 27.3 3 Noroeste 14 Oeste 0 1008.5 -- 36
2020-10-31 14:00:00 26.4 6 Norte 14 Noroeste 0 1009.3 -- 38
2020-10-31 13:00:00 25.1 3 Nordeste 12 Norte 0 1010.1 -- 43
2020-10-31 12:00:00 22.7 5 Norte 10 Nordeste 0 1010.9 -- 51
2020-10-31 11:00:00 20.4 2 Nordeste 7 Este 0 1011.2 -- 58
2020-10-31 10:00:00 17 2 Sudeste 7 Sudeste 0 1010.9 -- 68
2020-10-31 09:00:00 13.8 0 Calma 3 Noroeste 0 1010.7 -- 77
2020-10-31 08:00:00 11.8 0 Calma 5 Sudoeste 0 1010.1 -- 80
2020-10-31 07:00:00 12.8 0 Calma 5 Sudeste 0 1009.8 -- 77
2020-10-31 06:00:00 13.3 0 Calma 7 Sudeste 0 1009.6 -- 76
2020-10-31 05:00:00 13.3 3 Sudeste 10 Sudeste 0 1009.1 -- 74
2020-10-31 04:00:00 13.6 3 Sudeste 6 Sur 0 1009.1 -- 73
2020-10-31 03:00:00 14 2 Oeste 3 Sur 0 1009.5 -- 68
2020-10-31 02:00:00 14.8 0 Calma 4 Sur 0 1009.2 -- 64
2020-10-31 01:00:00 15.9 3 Sur 4 Sur 0 1009.3 -- 62
2020-10-31 00:00:00 16.8 0 Calma 10 Sur 0 1009.2 -- 58
2020-10-30 23:00:00 17.8 2 Sur 6 Sudeste 0 1008.8 -- 52
2020-10-30 22:00:00 18.6 6 Sudeste 9 Sur 0 1008.9 -- 48
2020-10-30 21:00:00 19.4 0 Calma 8 Sudoeste 0 1008.4 -- 45
2020-10-30 20:00:00 20.3 5 Sudeste 13 Sudoeste 0 1008.4 -- 42
2020-10-30 19:00:00 22.2 9 Sudoeste 12 Sudoeste 0 1007.9 -- 38
2020-10-30 18:00:00 25.4 6 Sur 12 Sur 0 1007.7 -- 36
2020-10-30 17:00:00 27.2 3 Sur 12 Sudeste 0 1007.4 -- 35
2020-10-30 16:00:00 27.5 6 Este 16 Este 0 1007.3 -- 33
2020-10-30 15:00:00 27.6 11 Este 18 Este 0 1007.5 -- 33
2020-10-30 14:00:00 27.1 11 Este 19 Sudeste 0 1008.2 -- 35
2020-10-30 13:00:00 25.6 8 Este 19 Este 0 1009 -- 38
2020-10-30 12:00:00 24 12 Este 23 Este 0 1009.7 -- 42
2020-10-30 11:00:00 21.5 8 Sudeste 15 Este 0 1010.1 -- 52
2020-10-30 10:00:00 16.8 2 Sudeste 9 Sudeste 0 1010.4 -- 68
2020-10-30 09:00:00 14.2 4 Sudeste 7 Sudeste 0 1010.3 -- 75
2020-10-30 08:00:00 11 4 Sudoeste 5 Sudoeste 0 1009.7 -- 83
2020-10-30 07:00:00 10.8 0 Calma 4 Sudoeste 0 1009.5 -- 79
2020-10-30 06:00:00 11.9 0 Calma 6 Sur 0 1009.5 -- 78
2020-10-30 05:00:00 11.9 3 Sur 5 Sur 0 1009.4 -- 74
2020-10-30 04:00:00 12.7 0 Calma 6 Sur 0 1009.4 -- 72
2020-10-30 03:00:00 14.2 3 Sur 8 Sudoeste 0 1009.6 -- 68
2020-10-30 02:00:00 14.5 0 Calma 5 Norte 0 1009.6 -- 66
2020-10-30 01:00:00 14.4 3 Noroeste 5 Noroeste 0 1009.6 -- 66
2020-10-30 00:00:00 15.5 0 Calma 6 Sudeste 0 1009.7 -- 62
2020-10-29 23:00:00 16.7 4 Sur 6 Sudeste 0 1009.7 -- 56
2020-10-29 22:00:00 17.3 4 Sur 9 Sudoeste 0 1009.6 -- 52
2020-10-29 21:00:00 18.9 7 Sudoeste 21 Sudoeste 0 1009.2 -- 45
2020-10-29 20:00:00 21.4 15 Sudoeste 21 Sudoeste 0 1008.7 -- 40
2020-10-29 19:00:00 22.5 13 Sudoeste 17 Sudoeste 0 1008.3 -- 36
2020-10-29 18:00:00 25.8 12 Sur 18 Sur 0 1007.7 -- 31
2020-10-29 17:00:00 27.7 5 Este 20 Este 0 1007.5 -- 30
2020-10-29 16:00:00 27.8 10 Nordeste 19 Este 0 1007.7 -- 28
2020-10-29 15:00:00 27.2 5 Este 12 Este 0 1008 -- 33
2020-10-29 14:00:00 25.9 4 Este 14 Sudeste 0 1008.8 -- 36
2020-10-29 13:00:00 24 7 Este 16 Este 0 1009.9 -- 41
2020-10-29 12:00:00 21.8 10 Este 15 Este 0 1010.5 -- 46
2020-10-29 11:00:00 19.6 9 Este 15 Este 0 1010.9 -- 52
2020-10-29 10:00:00 16.4 4 Este 11 Nordeste 0 1010.9 -- 65
2020-10-29 09:00:00 13.4 5 Este 8 Nordeste 0 1010.5 -- 80
2020-10-29 08:00:00 10.5 0 Calma 5 Sudeste 0 1009.7 -- 88
2020-10-29 07:00:00 10.2 3 Sudeste 7 Sudeste 0 1009.5 -- 88
2020-10-29 06:00:00 10.8 5 Noroeste 6 Norte 0 1009.1 -- 88
2020-10-29 05:00:00 10.6 2 Sur 3 Sur 0 1008.9 -- 87
2020-10-29 04:00:00 11 0 Calma 6 Sur 0 1008.9 -- 87
2020-10-29 03:00:00 11.9 0 Calma 2 Sur 0 1009 -- 85
2020-10-29 02:00:00 12.4 0 Calma 6 Sur 0 1008.9 -- 83
2020-10-29 01:00:00 13.1 0 Calma 6 Sudeste 0 1009.1 -- 79
2020-10-29 00:00:00 13.9 0 Calma 3 Nordeste 0 1009.1 -- 73
2020-10-28 23:00:00 15 0 Calma 3 Sudoeste 0 1009 -- 68
2020-10-28 22:00:00 16.1 0 Calma 3 Norte 0 1009 -- 64
2020-10-28 21:00:00 17.2 0 Calma 5 Noroeste 0 1008.5 -- 59
2020-10-28 20:00:00 18.7 2 Noroeste 5 Noroeste 0 1007.9 -- 53
2020-10-28 19:00:00 20.4 0 Calma 4 Nordeste 0 1007.3 -- 47
2020-10-28 18:00:00 22.8 0 Calma 14 Este 0 1006.8 -- 43
2020-10-28 17:00:00 23.5 2 Norte 12 Nordeste 0 1006.8 -- 41
2020-10-28 16:00:00 23.3 5 Nordeste 14 Nordeste 0 1007 -- 41
2020-10-28 15:00:00 22.1 10 Este 19 Nordeste 0 1007.2 -- 42
2020-10-28 14:00:00 21.2 7 Nordeste 22 Este 0 1007.9 -- 42
2020-10-28 13:00:00 20.2 9 Nordeste 18 Este 0 1008.4 -- 46
2020-10-28 12:00:00 18.6 6 Nordeste 16 Este 0 1008.6 -- 51
2020-10-28 11:00:00 16.3 5 Este 12 Sudeste 0 1008.9 -- 59
2020-10-28 10:00:00 13.2 4 Sudeste 7 Sudeste 0 1008.9 -- 72
2020-10-28 09:00:00 10 2 Sudeste 4 Sudoeste 0 1008.7 -- 86
2020-10-28 08:00:00 7.7 2 Sur 3 Sudoeste 0 1007.8 -- 88
2020-10-28 07:00:00 7.3 0 Calma 2 Sudoeste 0 1007.5 -- 86
2020-10-28 06:00:00 7.9 0 Calma 3 Sur 0 1007.2 -- 86
2020-10-28 05:00:00 8.6 0 Calma 4 Sur 0 1006.9 -- 85
2020-10-28 04:00:00 9 3 Sudoeste 6 Sur 0 1006.9 -- 84
2020-10-28 03:00:00 9.1 0 Calma 3 Sudoeste 0 1007 -- 80
2020-10-28 02:00:00 9.6 2 Noroeste 4 Noroeste 0 1007.1 -- 78
2020-10-28 01:00:00 10.5 0 Calma 6 Sur 0 1007.1 -- 75
2020-10-28 00:00:00 11.1 4 Sur 6 Sudoeste 0 1007.1 -- 73
2020-10-27 23:00:00 11.7 3 Sudoeste 6 Sur 0 1007.3 -- 70
2020-10-27 22:00:00 12.8 2 Este 5 Sudoeste 0 1007.1 -- 61
2020-10-27 21:00:00 14 0 Calma 4 Oeste 0 1006.9 -- 56
2020-10-27 20:00:00 15.6 0 Calma 4 Oeste 0 1006.7 -- 48
2020-10-27 19:00:00 17.2 0 Calma 3 Norte 0 1005.9 -- 42
2020-10-27 18:00:00 19.5 2 Noroeste 9 Norte 0 1005.7 -- 35
2020-10-27 17:00:00 20.4 5 Norte 13 Norte 0 1005.9 -- 32
2020-10-27 16:00:00 20.5 5 Norte 16 Nordeste 0 1005.9 -- 31
2020-10-27 15:00:00 20.1 4 Nordeste 11 Norte 0 1006.1 -- 35
2020-10-27 14:00:00 19.6 4 Sudoeste 11 Sudoeste 0 1006.9 -- 41
2020-10-27 13:00:00 18.1 5 Sudeste 10 Este 0 1007.7 -- 47
2020-10-27 12:00:00 16.3 3 Sudeste 10 Este 0 1008.6 -- 56
2020-10-27 11:00:00 13.9 2 Este 6 Este 0 1008.9 -- 65
2020-10-27 10:00:00 10.8 4 Sudeste 7 Sudeste 0 1009 -- 80
2020-10-27 09:00:00 8.4 0 Calma 5 Sudeste 0 1008.6 -- 89
2020-10-27 08:00:00 6.2 0 Calma 6 Sudeste 0 1008 -- 89
2020-10-27 07:00:00 6.3 4 Sur 6 Sur 0 1007.6 -- 89
2020-10-27 06:00:00 6.5 0 Calma 5 Sudeste 0 1007.6 -- 88
2020-10-27 05:00:00 6.7 3 Sur 5 Sur 0 1007.3 -- 88
2020-10-27 04:00:00 6.7 0 Calma 6 Sur 0 1007.4 -- 85
2020-10-27 03:00:00 7.8 4 Sur 6 Sudoeste 0 1007.8 -- 84
2020-10-27 02:00:00 8.7 0 Calma 5 Sur 0 1008 -- 82
2020-10-27 01:00:00 9 0 Calma 3 Sudeste 0 1008 -- 79
2020-10-27 00:00:00 9.7 0 Calma 8 Sudeste 0 1008.5 -- 77